ADDS METAR Data INFO
IDs: Format: Raw Decoded Include TAF

Data at: 0318 UTC 20 Jul 2018

KLDM 200315Z AUTO 13006KT 10SM OVC095 23/14 A2986 RMK AO2 T02300142
KLDM 200255Z AUTO 11006KT 10SM BKN085 BKN120 23/14 A2985 RMK AO2 T02300144
KLDM 200235Z AUTO 11005KT 10SM SCT085 21/15 A2986 RMK AO2 T02140145
KLDM 200215Z AUTO 10005KT 10SM SCT085 21/15 A2986 RMK AO2 T02100145
KLDM 200155Z AUTO 10004KT 10SM CLR 21/14 A2986 RMK AO2 T02100142
KLDM 200135Z AUTO 10004KT 10SM CLR 23/14 A2986 RMK AO2 T02260140
KLDM 200115Z AUTO 13003KT 10SM CLR 25/14 A2986 RMK AO2 T02450136
KLDM 200055Z AUTO 14004KT 10SM CLR 25/14 A2987 RMK AO2 T02500136
KLDM 200035Z AUTO 14003KT 10SM CLR 26/14 A2987 RMK AO2 T02550135
KLDM 200015Z AUTO 16003KT 10SM CLR 26/14 A2987 RMK AO2 T02570136
KLDM 192355Z AUTO 17004KT 10SM CLR 26/14 A2988 RMK AO2 T02620137 10282 20260
KLDM 192335Z AUTO 19005KT 10SM CLR 26/14 A2989 RMK AO2 T02610136
KLDM 192315Z AUTO 19006KT 10SM CLR 26/13 A2990 RMK AO2 T02620134
KLDM 192255Z AUTO 21009G14KT 10SM CLR 27/13 A2990 RMK AO2 T02660133
KLDM 192235Z AUTO 21007KT 10SM CLR 28/14 A2991 RMK AO2 T02750136
KLDM 192215Z AUTO 21009KT 10SM CLR 27/14 A2992 RMK AO2 T02720138
KLDM 192155Z AUTO 22010G17KT 10SM CLR 27/14 A2992 RMK AO2 T02680135
KLDM 192135Z AUTO 22010KT 10SM CLR 27/13 A2993 RMK AO2 T02690131
KLDM 192115Z AUTO 24012G15KT 10SM CLR 28/13 A2993 RMK AO2 T02750134
KLDM 192055Z AUTO 23011G15KT 10SM CLR 28/13 A2994 RMK AO2 T02750131
KLDM 192035Z AUTO 23013G16KT 10SM CLR 28/13 A2994 RMK AO2 T02770131
KLDM 192015Z AUTO 22011G19KT 10SM CLR 28/13 A2995 RMK AO2 T02760127
KLDM 191955Z AUTO 23012G16KT 10SM CLR 28/14 A2995 RMK AO2 T02760143
KLDM 191935Z AUTO 23011G17KT 10SM CLR 27/14 A2995 RMK AO2 T02730139
KLDM 191915Z AUTO 22010KT 10SM SCT060 27/14 A2996 RMK AO2 T02740140
KLDM 191855Z AUTO 23008KT 190V260 10SM SCT060 27/13 A2996 RMK AO2 T02680131
KLDM 191835Z AUTO 24009KT 10SM CLR 27/13 A2997 RMK AO2 T02670126
KLDM 191815Z AUTO 25009G14KT 10SM CLR 27/13 A2997 RMK AO2 T02740125
KLDM 191755Z AUTO 23011G14KT 10SM SCT060 28/13 A2998 RMK AO2 T02820130 10282 20126
KLDM 191735Z AUTO 23009KT 10SM SCT060 27/12 A2997 RMK AO2 T02740124
KLDM 191715Z AUTO 19008G15KT 10SM CLR 28/12 A2999 RMK AO2 T02750116
KLDM 191655Z AUTO 14010KT 10SM CLR 26/11 A2999 RMK AO2 T02640112
KLDM 191635Z AUTO 16007KT 10SM CLR 26/11 A2999 RMK AO2 T02590111
KLDM 191615Z AUTO 17005KT 10SM CLR 26/11 A3000 RMK AO2 T02550114
KLDM 191555Z AUTO 13006KT 10SM CLR 25/12 A3001 RMK AO2 T02520121
KLDM 191535Z AUTO 11004KT 10SM CLR 24/12 A3001 RMK AO2 T02420116
KLDM 191515Z AUTO 11004KT 10SM CLR 24/13 A3002 RMK AO2 T02390128
KLDM 191455Z AUTO 14004KT 10SM CLR 24/13 A3002 RMK AO2 T02360126
KLDM 191436Z AUTO 13005KT 10SM CLR 23/13 A3002 RMK AO2 T02290130
KLDM 191415Z AUTO 11005KT 10SM CLR 22/14 A3003 RMK AO2 T02200138
KLDM 191355Z AUTO 14003KT 10SM CLR 21/13 A3004 RMK AO2 T02100128
KLDM 191335Z AUTO 00000KT 10SM CLR 20/13 A3004 RMK AO2 T02010129
KLDM 191315Z AUTO 00000KT 10SM CLR 18/13 A3005 RMK AO2 T01840128
KLDM 191255Z AUTO 12003KT 10SM CLR 17/13 A3005 RMK AO2 T01670126
KLDM 191235Z AUTO 00000KT 10SM CLR 15/12 A3006 RMK AO2 T01500124
KLDM 191215Z AUTO 00000KT 10SM CLR 14/13 A3005 RMK AO2 T01360126
KLDM 191155Z AUTO 00000KT 10SM CLR 12/12 A3005 RMK AO2 T01230117 10123 20075
KLDM 191135Z AUTO 00000KT 10SM CLR 11/11 A3005 RMK AO2 T01130109
KLDM 191115Z AUTO 00000KT 10SM CLR 09/09 A3005 RMK AO2 T00930089
KLDM 191055Z AUTO 00000KT 1 1/4SM BR VV007 09/09 A3005 RMK AO2 VIS 1/2V5 T00910087
KLDM 191035Z AUTO 00000KT 3SM BR CLR 08/07 A3006 RMK AO2 T00760072
KLDM 191015Z AUTO 00000KT 1/2SM FG VV005 08/08 A3006 RMK AO2 T00790075
KLDM 190955Z AUTO 00000KT 1/2SM FG VV005 09/09 A3006 RMK AO2 T00910087
KLDM 190935Z AUTO 00000KT 1 1/2SM BR SCT002 09/09 A3006 RMK AO2 VIS 1/4V5 T00940090
KLDM 190915Z AUTO 00000KT 5SM BR CLR 09/09 A3005 RMK AO2 T00930090
KLDM 190855Z AUTO 00000KT 7SM CLR 08/08 A3005 RMK AO2 T00790075
KLDM 190835Z AUTO 00000KT 1 1/2SM BR VV007 09/08 A3006 RMK AO2 T00870083
KLDM 190815Z AUTO 00000KT 7SM CLR 09/09 A3005 RMK AO2 T00890085
KLDM 190755Z AUTO 00000KT 1 3/4SM BR VV007 10/09 A3005 RMK AO2 VIS 3/4V5 T00960092
KLDM 190735Z AUTO 00000KT 10SM SCT002 09/08 A3005 RMK AO2 T00860081
KLDM 190715Z AUTO 00000KT 5SM BR SCT002 09/09 A3006 RMK AO2 T00940090
KLDM 190655Z AUTO 00000KT 1 3/4SM BR VV007 10/09 A3005 RMK AO2 VIS 1/2V5 T00970093
KLDM 190635Z AUTO 00000KT 1 1/2SM BR VV007 11/10 A3006 RMK AO2 VIS 1/2V5 T01070103
KLDM 190615Z AUTO 00000KT 1 1/2SM BR VV007 11/10 A3006 RMK AO2 VIS 1/2V5 T01060102
KLDM 190555Z AUTO 00000KT 7SM CLR 11/11 A3006 RMK AO2 T01090105 10213 20101 402410066
KLDM 190535Z AUTO 00000KT 5SM BR CLR 11/10 A3006 RMK AO2 T01070102
KLDM 190515Z AUTO 00000KT 10SM CLR 12/11 A3005 RMK AO2 T01170113
KLDM 190455Z AUTO 00000KT 4SM BR CLR 12/12 A3005 RMK AO2 T01200115
KLDM 190435Z AUTO 00000KT 7SM CLR 12/12 A3005 RMK AO2 T01200115
KLDM 190415Z AUTO 00000KT 2SM BR CLR 12/12 A3005 RMK AO2 VIS 1/2V5 T01240119
KLDM 190355Z AUTO 00000KT 10SM CLR 12/12 A3005 RMK AO2 T01220116
KLDM 190335Z AUTO 00000KT 10SM CLR 12/11 A3006 RMK AO2 T01190112
KLDM 190315Z AUTO 00000KT 10SM CLR 13/12 A3006 RMK AO2 T01310123
KLDM 190255Z AUTO 00000KT 10SM CLR 14/13 A3007 RMK AO2 T01420129
KLDM 190235Z AUTO 00000KT 10SM CLR 14/13 A3006 RMK AO2 T01440128
KLDM 190215Z AUTO 00000KT 10SM CLR 15/13 A3006 RMK AO2 T01490128
KLDM 190155Z AUTO 00000KT 10SM CLR 17/13 A3006 RMK AO2 T01660130
KLDM 190135Z AUTO 00000KT 10SM CLR 16/13 A3005 RMK AO2 T01640127
KLDM 190115Z AUTO 00000KT 10SM CLR 18/13 A3006 RMK AO2 T01820130
KLDM 190055Z AUTO 00000KT 10SM CLR 19/13 A3007 RMK AO2 T01900128
KLDM 190035Z AUTO 33003KT 10SM CLR 20/13 A3007 RMK AO2 T02010129
KLDM 190015Z AUTO 34005KT 10SM CLR 21/13 A3007 RMK AO2 T02100125
KLDM 182355Z AUTO 31005KT 10SM CLR 22/12 A3008 RMK AO2 T02150124 10241 20215
KLDM 182335Z AUTO 31005KT 10SM CLR 22/13 A3007 RMK AO2 T02200126
KLDM 182315Z AUTO 34006KT 10SM CLR 22/13 A3007 RMK AO2 T02240125
KLDM 182255Z AUTO 32005KT 10SM CLR 22/12 A3007 RMK AO2 T02230122
KLDM 182235Z AUTO 36006KT 10SM CLR 22/12 A3008 RMK AO2 T02240122
KLDM 182215Z AUTO 31006KT 10SM CLR 23/12 A3008 RMK AO2 T02270123
KLDM 182155Z AUTO 33006KT 10SM CLR 23/12 A3009 RMK AO2 T02250120
KLDM 182135Z AUTO 33008KT 10SM CLR 23/12 A3009 RMK AO2 T02290122
KLDM 182115Z AUTO 32005KT 10SM CLR 23/12 A3010 RMK AO2 T02270123
KLDM 182055Z AUTO 32006KT 10SM CLR 23/13 A3010 RMK AO2 T02300127
KLDM 182035Z AUTO 32006KT 10SM CLR 23/12 A3011 RMK AO2 T02280123
KLDM 182015Z AUTO 36007KT 10SM CLR 23/12 A3010 RMK AO2 T02300121
KLDM 181955Z AUTO 30008KT 10SM CLR 24/12 A3011 RMK AO2 T02350124
KLDM 181935Z AUTO 30006G17KT 10SM SCT044 24/12 A3011 RMK AO2 T02350124
KLDM 181915Z AUTO 31008KT 280V340 10SM CLR 24/12 A3011 RMK AO2 T02370119
KLDM 181855Z AUTO 33008KT 10SM CLR 24/12 A3011 RMK AO2 T02360122
KLDM 181835Z AUTO 33009KT 10SM CLR 24/12 A3011 RMK AO2 T02370124
KLDM 181815Z AUTO 31007KT 10SM SCT043 24/12 A3012 RMK AO2 T02350122
KLDM 181755Z AUTO 36008KT 10SM SCT045 24/12 A3011 RMK AO2 T02370121 10241 20122
KLDM 181735Z AUTO 36006KT 10SM SCT043 24/12 A3011 RMK AO2 T02350120
KLDM 181715Z AUTO 03004KT 10SM BKN043 23/12 A3012 RMK AO2 T02280116
KLDM 181655Z AUTO 06004KT 10SM SCT041 23/12 A3012 RMK AO2 T02290117
KLDM 181635Z AUTO 00000KT 10SM SCT041 23/12 A3013 RMK AO2 T02270115
KLDM 181615Z AUTO 35003KT 10SM CLR 22/12 A3014 RMK AO2 T02220116
KLDM 181555Z AUTO 06005KT 10SM CLR 22/11 A3015 RMK AO2 T02210114
KLDM 181535Z AUTO 01005KT 10SM CLR 22/11 A3015 RMK AO2 T02150108